Eurasian Highway — 7JKY — position and weather

sailwx.info

Track history (hours):
 
Tides and Currents Weather Stations Pressure Air Temp Water Temp Dewpoint Dewpoint Depression Visibility Wind Speed Wind Dir Waves Ship Positions

Eurasian Highway

Last reported at 2016-Aug-25 07:31 UTC. Time now 2016-Aug-27 16:55 UTC.
Position N 19°54' W 096°09'.

Length 199 m; draft 9 m.

Type: Cargo ship. MMSI: 432839000.

Date/timePositionNaut miles runAvg speedWind from/ knotsBaromVisibWave heightAir tempDewpointWater temp
2016-Aug-25 07:31N 19°54' W 096°09'1819.2
2016-Aug-25 06:34N 19°37' W 096°03'2512.4
2016-Aug-25 04:33N 19°12' W 096°05'3 2.7
2016-Aug-25 03:32N 19°13' W 096°08'0 0.0
2016-Aug-25 02:29N 19°13' W 096°08'0 0.0
2016-Aug-25 01:33N 19°13' W 096°08'0 0.0
2016-Aug-25 00:33N 19°13' W 096°08'0 0.0
2016-Aug-24 23:33N 19°13' W 096°08'0 0.0
2016-Aug-24 22:32N 19°13' W 096°08'0 0.0
2016-Aug-24 21:33N 19°13' W 096°08'0 0.0
2016-Aug-24 20:33N 19°13' W 096°08'0 0.0
2016-Aug-24 19:33N 19°13' W 096°08'0 0.0
2016-Aug-24 18:33N 19°13' W 096°08'0 0.0
2016-Aug-24 17:33N 19°13' W 096°08'0 0.0
2016-Aug-24 16:32N 19°13' W 096°08'0 0.0
2016-Aug-24 15:33N 19°13' W 096°08'0 0.0
2016-Aug-24 14:33N 19°13' W 096°08'0 0.0
2016-Aug-24 13:29N 19°13' W 096°08'0 0.0
2016-Aug-24 12:30N 19°13' W 096°08'0 0.0
2016-Aug-24 11:33N 19°13' W 096°08'0 0.0
2016-Aug-24 10:33N 19°13' W 096°08'0 0.0
2016-Aug-24 09:33N 19°13' W 096°08'0 0.0
2016-Aug-24 08:32N 19°13' W 096°08'0 0.0
2016-Aug-24 07:30N 19°13' W 096°08'0 0.0
2016-Aug-24 06:33N 19°13' W 096°08'0 0.0
2016-Aug-24 04:32N 19°13' W 096°08'0 0.0
2016-Aug-24 03:32N 19°13' W 096°08'0 0.0
2016-Aug-24 02:32N 19°13' W 096°08'0 0.0
2016-Aug-24 01:32N 19°13' W 096°08'0 0.0
2016-Aug-24 00:33N 19°13' W 096°08'0 0.0
2016-Aug-23 23:33N 19°13' W 096°08'0 0.0
2016-Aug-23 22:33N 19°13' W 096°08'0 0.0
2016-Aug-23 21:33N 19°13' W 096°08'0 0.0
2016-Aug-23 20:32N 19°13' W 096°08'0 0.0
2016-Aug-23 19:33N 19°13' W 096°08'0 0.0
2016-Aug-23 18:33N 19°13' W 096°08'0 0.0
2016-Aug-23 17:32N 19°13' W 096°08'0 0.0
2016-Aug-23 16:33N 19°13' W 096°08'0 0.0
2016-Aug-23 15:32N 19°13' W 096°08'0 0.0
2016-Aug-23 14:27N 19°13' W 096°08'0 0.0
2016-Aug-23 13:33N 19°13' W 096°08'0 0.0
2016-Aug-23 12:33N 19°13' W 096°08'0 0.0
2016-Aug-23 11:32N 19°13' W 096°08'0 0.0
2016-Aug-23 10:32N 19°13' W 096°08'0 0.0
2016-Aug-23 09:33N 19°13' W 096°08'0 0.0
2016-Aug-23 08:33N 19°13' W 096°08'0 0.0
2016-Aug-23 07:33N 19°13' W 096°08'0 0.0
2016-Aug-23 06:33N 19°13' W 096°08'0 0.0
2016-Aug-23 05:33N 19°13' W 096°08'0 0.0
2016-Aug-23 04:33N 19°13' W 096°08'0 0.0
2016-Aug-23 03:32N 19°13' W 096°08'0 0.0
2016-Aug-23 02:30N 19°13' W 096°08'0 0.0
2016-Aug-23 01:30N 19°13' W 096°08'0 0.0
2016-Aug-23 00:33N 19°13' W 096°08'0 0.0
2016-Aug-22 23:33N 19°13' W 096°08'0 0.0
2016-Aug-22 22:33N 19°13' W 096°08'0 0.0
2016-Aug-22 21:33N 19°13' W 096°08'0 0.0
2016-Aug-22 20:30N 19°13' W 096°08'0 0.0
2016-Aug-22 19:33N 19°13' W 096°08'0 0.0
2016-Aug-22 18:33N 19°13' W 096°08'0 0.0
2016-Aug-22 17:32N 19°13' W 096°08'0 0.0
2016-Aug-22 16:33N 19°13' W 096°08'0 0.0
2016-Aug-22 15:33N 19°13' W 096°08'1 0.6
2016-Aug-22 14:33N 19°12' W 096°08'7 7.4
2016-Aug-22 13:33N 19°15' W 096°00'1515.5
2016-Aug-22 12:34N 19°30' W 096°01'6 6.2
2016-Aug-22 11:33N 19°36' W 096°01'2 2.0
2016-Aug-22 10:33N 19°35' W 095°59'1 1.4
2016-Aug-22 09:34N 19°35' W 095°58'1 1.4
2016-Aug-22 08:33N 19°35' W 095°56'1 1.3
2016-Aug-22 07:33N 19°34' W 095°55'1 1.5
2016-Aug-22 06:33N 19°33' W 095°54'1 1.1
2016-Aug-22 05:33N 19°33' W 095°53'1 1.4
2016-Aug-22 04:34N 19°34' W 095°52'59017.3
2016-Aug-20 18:29N 29°21' W 094°43'4 0.3
2016-Aug-20 07:32N 29°19' W 094°47'0 0.0
2016-Aug-20 05:32N 29°19' W 094°47'0 0.0
2016-Aug-20 04:21N 29°19' W 094°47'1 0.0
2016-Aug-19 01:21N 29°20' W 094°46'  
2016-Aug-16 13:33N 25°48' W 079°24'1616.1
2016-Aug-16 12:33N 26°03' W 079°18'  
Track history (hours):
 
Tides and Currents Weather Stations Pressure Air Temp Water Temp Dewpoint Dewpoint Depression Visibility Wind Speed Wind Dir Waves Ship Positions

Eurasian Highway

Last reported at 2016-Aug-25 07:31 UTC. Time now 2016-Aug-27 16:55 UTC.
Position N 19°54' W 096°09'.

Length 199 m; draft 9 m.

Type: Cargo ship. MMSI: 432839000.

Date/timePositionNaut miles runAvg speedWind from/ knotsBaromVisibWave heightAir tempDewpointWater temp
2016-Aug-25 07:31N 19°54' W 096°09'1819.2
2016-Aug-25 06:34N 19°37' W 096°03'2512.4
2016-Aug-25 04:33N 19°12' W 096°05'3 2.7
2016-Aug-25 03:32N 19°13' W 096°08'0 0.0
2016-Aug-25 02:29N 19°13' W 096°08'0 0.0
2016-Aug-25 01:33N 19°13' W 096°08'0 0.0
2016-Aug-25 00:33N 19°13' W 096°08'0 0.0
2016-Aug-24 23:33N 19°13' W 096°08'0 0.0
2016-Aug-24 22:32N 19°13' W 096°08'0 0.0
2016-Aug-24 21:33N 19°13' W 096°08'0 0.0
2016-Aug-24 20:33N 19°13' W 096°08'0 0.0
2016-Aug-24 19:33N 19°13' W 096°08'0 0.0
2016-Aug-24 18:33N 19°13' W 096°08'0 0.0
2016-Aug-24 17:33N 19°13' W 096°08'0 0.0
2016-Aug-24 16:32N 19°13' W 096°08'0 0.0
2016-Aug-24 15:33N 19°13' W 096°08'0 0.0
2016-Aug-24 14:33N 19°13' W 096°08'0 0.0
2016-Aug-24 13:29N 19°13' W 096°08'0 0.0
2016-Aug-24 12:30N 19°13' W 096°08'0 0.0
2016-Aug-24 11:33N 19°13' W 096°08'0 0.0
2016-Aug-24 10:33N 19°13' W 096°08'0 0.0
2016-Aug-24 09:33N 19°13' W 096°08'0 0.0
2016-Aug-24 08:32N 19°13' W 096°08'0 0.0
2016-Aug-24 07:30N 19°13' W 096°08'0 0.0
2016-Aug-24 06:33N 19°13' W 096°08'0 0.0
2016-Aug-24 04:32N 19°13' W 096°08'0 0.0
2016-Aug-24 03:32N 19°13' W 096°08'0 0.0
2016-Aug-24 02:32N 19°13' W 096°08'0 0.0
2016-Aug-24 01:32N 19°13' W 096°08'0 0.0
2016-Aug-24 00:33N 19°13' W 096°08'0 0.0
2016-Aug-23 23:33N 19°13' W 096°08'0 0.0
2016-Aug-23 22:33N 19°13' W 096°08'0 0.0
2016-Aug-23 21:33N 19°13' W 096°08'0 0.0
2016-Aug-23 20:32N 19°13' W 096°08'0 0.0
2016-Aug-23 19:33N 19°13' W 096°08'0 0.0
2016-Aug-23 18:33N 19°13' W 096°08'0 0.0
2016-Aug-23 17:32N 19°13' W 096°08'0 0.0
2016-Aug-23 16:33N 19°13' W 096°08'0 0.0
2016-Aug-23 15:32N 19°13' W 096°08'0 0.0
2016-Aug-23 14:27N 19°13' W 096°08'0 0.0
2016-Aug-23 13:33N 19°13' W 096°08'0 0.0
2016-Aug-23 12:33N 19°13' W 096°08'0 0.0
2016-Aug-23 11:32N 19°13' W 096°08'0 0.0
2016-Aug-23 10:32N 19°13' W 096°08'0 0.0
2016-Aug-23 09:33N 19°13' W 096°08'0 0.0
2016-Aug-23 08:33N 19°13' W 096°08'0 0.0
2016-Aug-23 07:33N 19°13' W 096°08'0 0.0
2016-Aug-23 06:33N 19°13' W 096°08'0 0.0
2016-Aug-23 05:33N 19°13' W 096°08'0 0.0
2016-Aug-23 04:33N 19°13' W 096°08'0 0.0
2016-Aug-23 03:32N 19°13' W 096°08'0 0.0
2016-Aug-23 02:30N 19°13' W 096°08'0 0.0
2016-Aug-23 01:30N 19°13' W 096°08'0 0.0
2016-Aug-23 00:33N 19°13' W 096°08'0 0.0
2016-Aug-22 23:33N 19°13' W 096°08'0 0.0
2016-Aug-22 22:33N 19°13' W 096°08'0 0.0
2016-Aug-22 21:33N 19°13' W 096°08'0 0.0
2016-Aug-22 20:30N 19°13' W 096°08'0 0.0
2016-Aug-22 19:33N 19°13' W 096°08'0 0.0
2016-Aug-22 18:33N 19°13' W 096°08'0 0.0
2016-Aug-22 17:32N 19°13' W 096°08'0 0.0
2016-Aug-22 16:33N 19°13' W 096°08'0 0.0
2016-Aug-22 15:33N 19°13' W 096°08'1 0.6
2016-Aug-22 14:33N 19°12' W 096°08'7 7.4
2016-Aug-22 13:33N 19°15' W 096°00'1515.5
2016-Aug-22 12:34N 19°30' W 096°01'6 6.2
2016-Aug-22 11:33N 19°36' W 096°01'2 2.0
2016-Aug-22 10:33N 19°35' W 095°59'1 1.4
2016-Aug-22 09:34N 19°35' W 095°58'1 1.4
2016-Aug-22 08:33N 19°35' W 095°56'1 1.3
2016-Aug-22 07:33N 19°34' W 095°55'1 1.5
2016-Aug-22 06:33N 19°33' W 095°54'1 1.1
2016-Aug-22 05:33N 19°33' W 095°53'1 1.4
2016-Aug-22 04:34N 19°34' W 095°52'59017.3
2016-Aug-20 18:29N 29°21' W 094°43'4 0.3
2016-Aug-20 07:32N 29°19' W 094°47'0 0.0
2016-Aug-20 05:32N 29°19' W 094°47'0 0.0
2016-Aug-20 04:21N 29°19' W 094°47'1 0.0
2016-Aug-19 01:21N 29°20' W 094°46'  
2016-Aug-16 13:33N 25°48' W 079°24'1616.1
2016-Aug-16 12:33N 26°03' W 079°18'  

Dump ship's entire track history